sensor_id;sensor_type;location;lat;lon;timestamp;pressure;altitude;pressure_sealevel;temperature;humidity
68822;BME280;55834;50.870;4.606;2022-12-07T00:03:46;101216.22;;;4.77;59.98
68822;BME280;55834;50.870;4.606;2022-12-07T00:06:13;101217.06;;;4.62;58.89
68822;BME280;55834;50.870;4.606;2022-12-07T00:08:39;101223.06;;;4.38;60.50
68822;BME280;55834;50.870;4.606;2022-12-07T00:11:12;101211.03;;;4.82;60.87
68822;BME280;55834;50.870;4.606;2022-12-07T00:13:38;101217.16;;;5.04;59.61
68822;BME280;55834;50.870;4.606;2022-12-07T00:16:13;101209.25;;;4.74;59.03
68822;BME280;55834;50.870;4.606;2022-12-07T00:18:38;101211.00;;;4.72;59.92
68822;BME280;55834;50.870;4.606;2022-12-07T00:21:12;101206.72;;;5.02;59.88
68822;BME280;55834;50.870;4.606;2022-12-07T00:23:38;101206.69;;;4.91;58.58
68822;BME280;55834;50.870;4.606;2022-12-07T00:26:08;101209.16;;;4.47;59.06
68822;BME280;55834;50.870;4.606;2022-12-07T00:28:34;101207.41;;;4.50;61.26
68822;BME280;55834;50.870;4.606;2022-12-07T00:31:04;101199.59;;;4.55;59.70
68822;BME280;55834;50.870;4.606;2022-12-07T00:33:31;101200.53;;;4.77;60.24
68822;BME280;55834;50.870;4.606;2022-12-07T00:35:58;101202.22;;;4.60;59.68
68822;BME280;55834;50.870;4.606;2022-12-07T00:38:24;101197.81;;;4.48;59.50
68822;BME280;55834;50.870;4.606;2022-12-07T00:40:57;101197.72;;;4.23;61.29
68822;BME280;55834;50.870;4.606;2022-12-07T00:43:23;101196.09;;;4.51;59.36
68822;BME280;55834;50.870;4.606;2022-12-07T00:45:49;101205.72;;;4.62;58.68
68822;BME280;55834;50.870;4.606;2022-12-07T00:48:14;101205.59;;;4.31;59.74
68822;BME280;55834;50.870;4.606;2022-12-07T00:50:39;101203.69;;;4.04;61.66
68822;BME280;55834;50.870;4.606;2022-12-07T00:53:05;101197.75;;;4.31;60.04
68822;BME280;55834;50.870;4.606;2022-12-07T00:55:34;101201.09;;;4.08;58.72
68822;BME280;55834;50.870;4.606;2022-12-07T00:57:59;101198.31;;;3.79;61.04
68822;BME280;55834;50.870;4.606;2022-12-07T01:00:24;101206.00;;;3.58;60.87
68822;BME280;55834;50.870;4.606;2022-12-07T01:02:50;101202.63;;;3.71;60.73
68822;BME280;55834;50.870;4.606;2022-12-07T01:05:15;101195.00;;;4.05;60.78
68822;BME280;55834;50.870;4.606;2022-12-07T01:07:41;101195.16;;;4.37;60.16
68822;BME280;55834;50.870;4.606;2022-12-07T01:10:06;101198.59;;;4.24;58.54
68822;BME280;55834;50.870;4.606;2022-12-07T01:12:32;101197.75;;;4.37;59.36
68822;BME280;55834;50.870;4.606;2022-12-07T01:14:57;101200.44;;;4.51;59.18
68822;BME280;55834;50.870;4.606;2022-12-07T01:17:22;101194.41;;;4.61;58.51
68822;BME280;55834;50.870;4.606;2022-12-07T01:19:48;101199.63;;;4.66;57.33
68822;BME280;55834;50.870;4.606;2022-12-07T01:22:13;101194.41;;;4.66;57.23
68822;BME280;55834;50.870;4.606;2022-12-07T01:24:38;101184.75;;;4.51;57.28
68822;BME280;55834;50.870;4.606;2022-12-07T01:27:04;101193.47;;;4.54;57.35
68822;BME280;55834;50.870;4.606;2022-12-07T01:29:29;101202.84;;;4.08;56.61
68822;BME280;55834;50.870;4.606;2022-12-07T01:31:54;101210.38;;;3.63;59.94
68822;BME280;55834;50.870;4.606;2022-12-07T01:34:20;101210.50;;;3.82;60.40
68822;BME280;55834;50.870;4.606;2022-12-07T01:36:45;101210.69;;;4.06;59.78
68822;BME280;55834;50.870;4.606;2022-12-07T01:39:10;101208.06;;;4.05;58.43
68822;BME280;55834;50.870;4.606;2022-12-07T01:41:38;101202.03;;;4.18;57.42
68822;BME280;55834;50.870;4.606;2022-12-07T01:49:37;101207.13;;;3.92;56.85
68822;BME280;55834;50.870;4.606;2022-12-07T01:52:23;101212.44;;;4.06;57.55
68822;BME280;55834;50.870;4.606;2022-12-07T01:54:54;101208.09;;;4.11;55.99
68822;BME280;55834;50.870;4.606;2022-12-07T01:57:21;101209.94;;;4.27;57.16
68822;BME280;55834;50.870;4.606;2022-12-07T01:59:48;101215.84;;;3.96;57.72
68822;BME280;55834;50.870;4.606;2022-12-07T02:02:23;101201.13;;;4.10;57.72
68822;BME280;55834;50.870;4.606;2022-12-07T02:04:52;101215.09;;;4.17;57.54
68822;BME280;55834;50.870;4.606;2022-12-07T02:07:19;101208.16;;;4.25;57.04
68822;BME280;55834;50.870;4.606;2022-12-07T02:09:45;101217.66;;;4.07;57.81
68822;BME280;55834;50.870;4.606;2022-12-07T02:12:11;101219.44;;;4.12;57.93
68822;BME280;55834;50.870;4.606;2022-12-07T02:14:36;101209.88;;;4.23;58.60
68822;BME280;55834;50.870;4.606;2022-12-07T02:30:42;101190.81;;;4.35;60.06
68822;BME280;55834;50.870;4.606;2022-12-07T02:33:19;101193.34;;;4.21;59.71
68822;BME280;55834;50.870;4.606;2022-12-07T02:35:49;101189.09;;;4.41;60.36
68822;BME280;55834;50.870;4.606;2022-12-07T02:38:28;101191.72;;;4.47;59.66
68822;BME280;55834;50.870;4.606;2022-12-07T02:40:57;101193.44;;;4.45;58.85
68822;BME280;55834;50.870;4.606;2022-12-07T02:43:30;101192.59;;;4.43;58.92
68822;BME280;55834;50.870;4.606;2022-12-07T02:46:04;101186.53;;;4.57;59.03
68822;BME280;55834;50.870;4.606;2022-12-07T02:48:33;101190.91;;;4.62;58.20
68822;BME280;55834;50.870;4.606;2022-12-07T02:50:58;101191.78;;;4.58;57.75
68822;BME280;55834;50.870;4.606;2022-12-07T02:53:35;101182.19;;;4.63;58.22
68822;BME280;55834;50.870;4.606;2022-12-07T02:56:07;101193.44;;;4.42;59.35
68822;BME280;55834;50.870;4.606;2022-12-07T03:10:00;101192.44;;;4.17;56.78
68822;BME280;55834;50.870;4.606;2022-12-07T03:15:26;101184.59;;;4.16;57.96
68822;BME280;55834;50.870;4.606;2022-12-07T03:17:54;101182.69;;;3.84;56.34
68822;BME280;55834;50.870;4.606;2022-12-07T03:20:22;101182.72;;;3.89;57.70
68822;BME280;55834;50.870;4.606;2022-12-07T03:22:49;101187.13;;;3.97;57.79
68822;BME280;55834;50.870;4.606;2022-12-07T03:25:17;101179.19;;;3.88;56.60
68822;BME280;55834;50.870;4.606;2022-12-07T03:27:55;101176.69;;;4.02;57.02
68822;BME280;55834;50.870;4.606;2022-12-07T03:30:25;101180.97;;;3.91;56.41
68822;BME280;55834;50.870;4.606;2022-12-07T03:35:45;101166.25;;;4.08;57.45
68822;BME280;55834;50.870;4.606;2022-12-07T03:38:20;101165.44;;;4.17;57.62
68822;BME280;55834;50.870;4.606;2022-12-07T03:40:56;101164.56;;;4.15;58.61
68822;BME280;55834;50.870;4.606;2022-12-07T03:43:23;101168.09;;;4.21;58.41
68822;BME280;55834;50.870;4.606;2022-12-07T03:46:02;101161.06;;;4.14;60.02
68822;BME280;55834;50.870;4.606;2022-12-07T03:48:37;101169.19;;;3.27;62.66
68822;BME280;55834;50.870;4.606;2022-12-07T03:54:02;101160.84;;;3.71;61.65
68822;BME280;55834;50.870;4.606;2022-12-07T03:56:26;101164.38;;;3.81;61.73
68822;BME280;55834;50.870;4.606;2022-12-07T03:58:53;101154.97;;;4.09;61.21
68822;BME280;55834;50.870;4.606;2022-12-07T04:01:19;101151.53;;;4.24;60.88
68822;BME280;55834;50.870;4.606;2022-12-07T04:03:44;101155.03;;;4.27;60.36
68822;BME280;55834;50.870;4.606;2022-12-07T04:06:10;101157.69;;;4.40;59.93
68822;BME280;55834;50.870;4.606;2022-12-07T04:08:35;101157.66;;;4.29;59.44
68822;BME280;55834;50.870;4.606;2022-12-07T04:11:01;101151.59;;;4.39;59.68
68822;BME280;55834;50.870;4.606;2022-12-07T04:13:26;101152.53;;;4.53;59.59
68822;BME280;55834;50.870;4.606;2022-12-07T04:15:52;101157.72;;;4.46;57.95
68822;BME280;55834;50.870;4.606;2022-12-07T04:18:17;101152.53;;;4.52;58.55
68822;BME280;55834;50.870;4.606;2022-12-07T04:20:42;101159.47;;;4.44;58.33
68822;BME280;55834;50.870;4.606;2022-12-07T04:23:08;101151.63;;;4.48;58.28
68822;BME280;55834;50.870;4.606;2022-12-07T04:25:33;101156.81;;;4.33;58.63
68822;BME280;55834;50.870;4.606;2022-12-07T04:27:58;101156.75;;;4.21;57.67
68822;BME280;55834;50.870;4.606;2022-12-07T04:30:24;101161.06;;;4.14;57.66
68822;BME280;55834;50.870;4.606;2022-12-07T04:32:49;101163.75;;;4.23;58.35
68822;BME280;55834;50.870;4.606;2022-12-07T04:35:14;101165.47;;;4.24;57.30
68822;BME280;55834;50.870;4.606;2022-12-07T04:37:40;101168.03;;;4.14;57.04
68822;BME280;55834;50.870;4.606;2022-12-07T04:40:08;101166.31;;;4.16;57.42
68822;BME280;55834;50.870;4.606;2022-12-07T04:42:36;101154.09;;;4.12;57.34
68822;BME280;55834;50.870;4.606;2022-12-07T04:45:01;101153.84;;;3.69;56.66
68822;BME280;55834;50.870;4.606;2022-12-07T04:47:26;101165.09;;;3.58;57.91
68822;BME280;55834;50.870;4.606;2022-12-07T04:49:52;101167.59;;;3.46;60.34
68822;BME280;55834;50.870;4.606;2022-12-07T04:52:17;101171.06;;;3.44;58.33
68822;BME280;55834;50.870;4.606;2022-12-07T04:54:42;101167.06;;;2.88;61.13
68822;BME280;55834;50.870;4.606;2022-12-07T04:57:08;101164.94;;;3.38;62.02
68822;BME280;55834;50.870;4.606;2022-12-07T04:59:33;101156.34;;;3.56;59.75
68822;BME280;55834;50.870;4.606;2022-12-07T05:01:58;101159.91;;;3.68;58.52
68822;BME280;55834;50.870;4.606;2022-12-07T05:04:23;101158.03;;;3.42;59.97
68822;BME280;55834;50.870;4.606;2022-12-07T05:06:49;101159.06;;;3.67;60.14
68822;BME280;55834;50.870;4.606;2022-12-07T05:09:14;101157.16;;;3.46;57.33
68822;BME280;55834;50.870;4.606;2022-12-07T05:11:39;101160.72;;;3.57;58.58
68822;BME280;55834;50.870;4.606;2022-12-07T05:14:12;101159.06;;;3.66;59.08
68822;BME280;55834;50.870;4.606;2022-12-07T05:16:39;101157.41;;;3.80;58.21
68822;BME280;55834;50.870;4.606;2022-12-07T05:19:04;101162.66;;;3.86;58.35
68822;BME280;55834;50.870;4.606;2022-12-07T05:21:30;101160.03;;;3.84;56.91
68822;BME280;55834;50.870;4.606;2022-12-07T05:23:55;101163.53;;;3.88;56.92
68822;BME280;55834;50.870;4.606;2022-12-07T05:26:21;101153.91;;;3.78;56.98
68822;BME280;55834;50.870;4.606;2022-12-07T05:28:50;101162.56;;;3.71;59.07
68822;BME280;55834;50.870;4.606;2022-12-07T05:31:15;101159.03;;;3.62;56.96
68822;BME280;55834;50.870;4.606;2022-12-07T05:33:41;101162.56;;;3.74;58.09
68822;BME280;55834;50.870;4.606;2022-12-07T05:36:06;101152.91;;;3.60;58.89
68822;BME280;55834;50.870;4.606;2022-12-07T05:38:32;101156.44;;;3.62;59.81
68822;BME280;55834;50.870;4.606;2022-12-07T05:41:05;101156.53;;;3.82;59.88
68822;BME280;55834;50.870;4.606;2022-12-07T05:43:31;101157.34;;;3.72;58.14
68822;BME280;55834;50.870;4.606;2022-12-07T05:45:57;101147.00;;;3.88;59.01
68822;BME280;55834;50.870;4.606;2022-12-07T05:48:23;101151.41;;;3.95;59.39
68822;BME280;55834;50.870;4.606;2022-12-07T05:50:49;101147.94;;;3.97;58.73
68822;BME280;55834;50.870;4.606;2022-12-07T05:53:16;101147.97;;;4.06;59.05
68822;BME280;55834;50.870;4.606;2022-12-07T05:55:41;101146.81;;;3.61;57.96
68822;BME280;55834;50.870;4.606;2022-12-07T05:58:06;101145.13;;;3.67;60.78
68822;BME280;55834;50.870;4.606;2022-12-07T06:00:50;101148.75;;;3.85;60.33
68822;BME280;55834;50.870;4.606;2022-12-07T06:03:16;101143.53;;;3.90;60.06
68822;BME280;55834;50.870;4.606;2022-12-07T06:05:41;101149.69;;;4.04;59.42
68822;BME280;55834;50.870;4.606;2022-12-07T06:08:07;101148.00;;;4.10;58.87
68822;BME280;55834;50.870;4.606;2022-12-07T06:10:32;101141.00;;;4.08;58.09
68822;BME280;55834;50.870;4.606;2022-12-07T06:12:58;101143.56;;;3.99;58.55
68822;BME280;55834;50.870;4.606;2022-12-07T06:15:23;101150.44;;;3.77;59.37
68822;BME280;55834;50.870;4.606;2022-12-07T06:17:48;101145.25;;;3.83;59.32
68822;BME280;55834;50.870;4.606;2022-12-07T06:20:14;101148.75;;;3.89;59.81
68822;BME280;55834;50.870;4.606;2022-12-07T06:22:39;101143.47;;;3.82;60.80
68822;BME280;55834;50.870;4.606;2022-12-07T06:25:05;101147.88;;;3.90;60.35
68822;BME280;55834;50.870;4.606;2022-12-07T06:27:30;101149.31;;;3.48;62.20
68822;BME280;55834;50.870;4.606;2022-12-07T06:29:57;101144.31;;;3.78;60.85
68822;BME280;55834;50.870;4.606;2022-12-07T06:32:23;101145.38;;;4.06;60.61
68822;BME280;55834;50.870;4.606;2022-12-07T06:34:48;101139.31;;;4.15;60.15
68822;BME280;55834;50.870;4.606;2022-12-07T06:37:13;101137.56;;;4.13;59.26
68822;BME280;55834;50.870;4.606;2022-12-07T06:39:39;101135.81;;;4.12;60.16
68822;BME280;55834;50.870;4.606;2022-12-07T06:42:04;101138.50;;;4.30;59.61
68822;BME280;55834;50.870;4.606;2022-12-07T06:44:29;101142.00;;;4.35;59.08
68822;BME280;55834;50.870;4.606;2022-12-07T06:46:55;101151.59;;;4.39;59.13
68822;BME280;55834;50.870;4.606;2022-12-07T06:49:20;101149.84;;;4.43;58.29
68822;BME280;55834;50.870;4.606;2022-12-07T06:51:45;101144.59;;;4.29;56.85
68822;BME280;55834;50.870;4.606;2022-12-07T06:54:12;101146.34;;;4.33;58.30
68822;BME280;55834;50.870;4.606;2022-12-07T06:56:38;101143.72;;;4.33;57.75
68822;BME280;55834;50.870;4.606;2022-12-07T06:59:04;101155.84;;;4.13;57.01
68822;BME280;55834;50.870;4.606;2022-12-07T07:01:31;101154.00;;;3.96;58.64
68822;BME280;55834;50.870;4.606;2022-12-07T07:03:57;101162.50;;;3.60;60.04
68822;BME280;55834;50.870;4.606;2022-12-07T07:06:23;101160.88;;;3.77;59.82
68822;BME280;55834;50.870;4.606;2022-12-07T07:08:49;101165.28;;;3.91;59.95
68822;BME280;55834;50.870;4.606;2022-12-07T07:11:14;101156.63;;;3.95;58.89
68822;BME280;55834;50.870;4.606;2022-12-07T07:13:39;101162.56;;;3.72;59.39
68822;BME280;55834;50.870;4.606;2022-12-07T07:16:06;101166.13;;;3.88;59.82
68822;BME280;55834;50.870;4.606;2022-12-07T07:18:32;101170.59;;;4.01;59.31
68822;BME280;55834;50.870;4.606;2022-12-07T07:20:57;101176.50;;;3.73;59.52
68822;BME280;55834;50.870;4.606;2022-12-07T07:23:23;101186.19;;;3.91;59.17
68822;BME280;55834;50.870;4.606;2022-12-07T07:25:48;101184.44;;;3.90;59.06
68822;BME280;55834;50.870;4.606;2022-12-07T07:28:14;101178.50;;;4.15;58.87
68822;BME280;55834;50.870;4.606;2022-12-07T07:30:40;101177.69;;;4.27;59.30
68822;BME280;55834;50.870;4.606;2022-12-07T07:33:06;101176.00;;;4.38;59.52
68822;BME280;55834;50.870;4.606;2022-12-07T07:35:33;101162.06;;;4.42;58.77
68822;BME280;55834;50.870;4.606;2022-12-07T07:37:59;101163.78;;;4.39;58.95
68822;BME280;55834;50.870;4.606;2022-12-07T07:40:25;101151.63;;;4.45;58.76
68822;BME280;55834;50.870;4.606;2022-12-07T07:42:52;101155.06;;;4.40;58.59
68822;BME280;55834;50.870;4.606;2022-12-07T07:45:19;101162.00;;;4.27;58.78
68822;BME280;55834;50.870;4.606;2022-12-07T07:47:44;101155.81;;;4.08;60.03
68822;BME280;55834;50.870;4.606;2022-12-07T07:50:10;101158.50;;;4.20;60.30
68822;BME280;55834;50.870;4.606;2022-12-07T07:52:35;101158.44;;;4.06;59.88
68822;BME280;55834;50.870;4.606;2022-12-07T07:55:01;101163.72;;;4.19;60.83
68822;BME280;55834;50.870;4.606;2022-12-07T07:57:26;101167.03;;;3.90;59.36
68822;BME280;55834;50.870;4.606;2022-12-07T07:59:52;101175.56;;;3.65;60.81
68822;BME280;55834;50.870;4.606;2022-12-07T08:02:19;101174.03;;;3.94;61.43
68822;BME280;55834;50.870;4.606;2022-12-07T08:04:45;101166.22;;;3.94;58.92
68822;BME280;55834;50.870;4.606;2022-12-07T08:07:11;101174.81;;;3.82;59.50
68822;BME280;55834;50.870;4.606;2022-12-07T08:09:37;101177.47;;;3.87;59.31
68822;BME280;55834;50.870;4.606;2022-12-07T08:12:03;101180.97;;;3.91;58.97
68822;BME280;55834;50.870;4.606;2022-12-07T08:14:28;101170.59;;;4.01;58.73
68822;BME280;55834;50.870;4.606;2022-12-07T08:16:54;101171.44;;;3.96;58.06
68822;BME280;55834;50.870;4.606;2022-12-07T08:19:20;101176.72;;;4.08;58.51
68822;BME280;55834;50.870;4.606;2022-12-07T08:21:45;101182.81;;;4.04;57.54
68822;BME280;55834;50.870;4.606;2022-12-07T08:24:11;101182.72;;;3.92;57.50
68822;BME280;55834;50.870;4.606;2022-12-07T08:26:36;101181.84;;;3.93;57.55
68822;BME280;55834;50.870;4.606;2022-12-07T08:29:02;101180.13;;;3.96;57.05
68822;BME280;55834;50.870;4.606;2022-12-07T08:31:27;101188.09;;;4.12;57.83
68822;BME280;55834;50.870;4.606;2022-12-07T08:33:54;101177.66;;;4.25;57.97
68822;BME280;55834;50.870;4.606;2022-12-07T08:36:19;101188.19;;;4.36;57.57
68822;BME280;55834;50.870;4.606;2022-12-07T08:38:46;101186.47;;;4.49;57.82
68822;BME280;55834;50.870;4.606;2022-12-07T08:41:12;101184.78;;;4.57;57.23
68822;BME280;55834;50.870;4.606;2022-12-07T08:43:37;101190.03;;;4.59;56.55
68822;BME280;55834;50.870;4.606;2022-12-07T08:46:07;101197.00;;;4.63;57.92
68822;BME280;55834;50.870;4.606;2022-12-07T08:48:37;101190.94;;;4.71;58.42
68822;BME280;55834;50.870;4.606;2022-12-07T08:51:04;101190.09;;;4.83;57.96
68822;BME280;55834;50.870;4.606;2022-12-07T08:53:30;101191.00;;;5.01;57.93
68822;BME280;55834;50.870;4.606;2022-12-07T08:55:56;101193.69;;;5.13;58.65
68822;BME280;55834;50.870;4.606;2022-12-07T08:58:22;101191.94;;;5.29;58.22
68822;BME280;55834;50.870;4.606;2022-12-07T09:00:47;101185.84;;;5.34;57.89
68822;BME280;55834;50.870;4.606;2022-12-07T09:03:13;101184.97;;;5.32;57.46
68822;BME280;55834;50.870;4.606;2022-12-07T09:05:38;101188.47;;;5.34;57.71
68822;BME280;55834;50.870;4.606;2022-12-07T09:08:04;101192.81;;;5.14;56.97
68822;BME280;55834;50.870;4.606;2022-12-07T09:10:30;101193.44;;;4.39;59.23
68822;BME280;55834;50.870;4.606;2022-12-07T09:12:55;101189.19;;;4.67;60.85
68822;BME280;55834;50.870;4.606;2022-12-07T09:15:20;101192.66;;;4.66;60.24
68822;BME280;55834;50.870;4.606;2022-12-07T09:17:46;101196.66;;;3.89;60.85
68822;BME280;55834;50.870;4.606;2022-12-07T09:20:12;101200.16;;;3.96;61.46
68822;BME280;55834;50.870;4.606;2022-12-07T09:22:37;101197.28;;;3.57;63.09
68822;BME280;55834;50.870;4.606;2022-12-07T09:25:03;101187.97;;;3.95;61.69
68822;BME280;55834;50.870;4.606;2022-12-07T09:27:29;101191.38;;;3.83;62.40
68822;BME280;55834;50.870;4.606;2022-12-07T09:29:54;101198.19;;;3.59;62.66
68822;BME280;55834;50.870;4.606;2022-12-07T09:32:21;101196.41;;;3.54;63.01
68822;BME280;55834;50.870;4.606;2022-12-07T09:34:47;101189.53;;;3.68;62.57
68822;BME280;55834;50.870;4.606;2022-12-07T09:37:12;101184.59;;;4.17;62.76
68822;BME280;55834;50.870;4.606;2022-12-07T09:39:38;101181.25;;;4.47;60.78
68822;BME280;55834;50.870;4.606;2022-12-07T09:42:05;101188.31;;;4.67;60.98
68822;BME280;55834;50.870;4.606;2022-12-07T09:44:33;101182.94;;;4.30;61.02
68822;BME280;55834;50.870;4.606;2022-12-07T09:46:58;101182.81;;;4.07;62.96
68822;BME280;55834;50.870;4.606;2022-12-07T09:49:25;101187.28;;;4.28;63.37
68822;BME280;55834;50.870;4.606;2022-12-07T09:52:17;101181.94;;;4.06;62.35
68822;BME280;55834;50.870;4.606;2022-12-07T09:54:46;101189.63;;;3.85;63.56
68822;BME280;55834;50.870;4.606;2022-12-07T09:57:13;101182.72;;;3.90;64.40
68822;BME280;55834;50.870;4.606;2022-12-07T09:59:39;101173.38;;;4.38;63.54
68822;BME280;55834;50.870;4.606;2022-12-07T10:02:33;101178.59;;;4.32;64.29
68822;BME280;55834;50.870;4.606;2022-12-07T10:04:59;101172.47;;;4.30;62.13
68822;BME280;55834;50.870;4.606;2022-12-07T10:07:25;101167.41;;;4.73;62.09
68822;BME280;55834;50.870;4.606;2022-12-07T10:09:50;101163.00;;;4.52;61.77
68822;BME280;55834;50.870;4.606;2022-12-07T10:12:15;101168.25;;;4.72;61.84
68822;BME280;55834;50.870;4.606;2022-12-07T10:14:59;101159.56;;;4.79;61.24
68822;BME280;55834;50.870;4.606;2022-12-07T10:17:37;101150.88;;;4.97;60.57
68822;BME280;55834;50.870;4.606;2022-12-07T10:20:13;101144.81;;;5.29;60.85
68822;BME280;55834;50.870;4.606;2022-12-07T10:22:54;101150.03;;;5.62;59.99
68822;BME280;55834;50.870;4.606;2022-12-07T10:25:21;101151.81;;;5.51;58.65
68822;BME280;55834;50.870;4.606;2022-12-07T10:28:18;101150.03;;;5.72;59.08
68822;BME280;55834;50.870;4.606;2022-12-07T10:31:03;101146.53;;;5.59;58.08
68822;BME280;55834;50.870;4.606;2022-12-07T10:35:55;101141.22;;;4.64;60.34
68822;BME280;55834;50.870;4.606;2022-12-07T10:38:21;101137.75;;;4.68;60.50
68822;BME280;55834;50.870;4.606;2022-12-07T10:40:46;101136.97;;;5.12;60.94
68822;BME280;55834;50.870;4.606;2022-12-07T10:51:12;101135.09;;;4.59;62.13
68822;BME280;55834;50.870;4.606;2022-12-07T11:02:32;101131.59;;;4.52;62.56
68822;BME280;55834;50.870;4.606;2022-12-07T11:09:59;101122.09;;;4.85;61.11
68822;BME280;55834;50.870;4.606;2022-12-07T11:12:39;101122.78;;;4.22;61.81
68822;BME280;55834;50.870;4.606;2022-12-07T11:15:19;101111.59;;;4.68;60.91
68822;BME280;55834;50.870;4.606;2022-12-07T11:20:51;101099.41;;;4.73;61.38
68822;BME280;55834;50.870;4.606;2022-12-07T11:26:23;101102.81;;;4.50;61.92
68822;BME280;55834;50.870;4.606;2022-12-07T11:34:24;101084.63;;;5.33;60.20
68822;BME280;55834;50.870;4.606;2022-12-07T11:36:53;101079.28;;;5.67;58.66
68822;BME280;55834;50.870;4.606;2022-12-07T11:41:49;101078.38;;;5.91;58.96
68822;BME280;55834;50.870;4.606;2022-12-07T11:44:23;101072.38;;;4.91;59.80
68822;BME280;55834;50.870;4.606;2022-12-07T11:46:59;101077.50;;;4.23;62.93
68822;BME280;55834;50.870;4.606;2022-12-07T11:55:21;101075.56;;;3.82;62.84
68822;BME280;55834;50.870;4.606;2022-12-07T11:57:54;101077.00;;;3.33;63.75
68822;BME280;55834;50.870;4.606;2022-12-07T12:00:22;101064.22;;;3.76;64.47
68822;BME280;55834;50.870;4.606;2022-12-07T12:02:59;101062.75;;;4.81;61.75
68822;BME280;55834;50.870;4.606;2022-12-07T12:05:26;101048.84;;;5.23;59.99
68822;BME280;55834;50.870;4.606;2022-12-07T12:08:13;101048.84;;;5.14;58.61
68822;BME280;55834;50.870;4.606;2022-12-07T12:18:52;101043.53;;;5.54;58.64
68822;BME280;55834;50.870;4.606;2022-12-07T12:21:26;101038.13;;;5.98;58.31
68822;BME280;55834;50.870;4.606;2022-12-07T12:23:59;101037.34;;;5.79;58.44
68822;BME280;55834;50.870;4.606;2022-12-07T12:26:29;101035.69;;;5.41;58.69
68822;BME280;55834;50.870;4.606;2022-12-07T12:29:04;101036.59;;;4.54;60.43
68822;BME280;55834;50.870;4.606;2022-12-07T12:31:36;101027.88;;;5.15;60.90
68822;BME280;55834;50.870;4.606;2022-12-07T12:34:10;101028.69;;;5.56;58.87
68822;BME280;55834;50.870;4.606;2022-12-07T12:36:49;101030.47;;;4.54;61.78
68822;BME280;55834;50.870;4.606;2022-12-07T12:39:18;101030.50;;;4.77;61.07
68822;BME280;55834;50.870;4.606;2022-12-07T12:47:00;101024.41;;;5.09;60.40
68822;BME280;55834;50.870;4.606;2022-12-07T12:49:42;101018.22;;;5.62;58.01
68822;BME280;55834;50.870;4.606;2022-12-07T12:54:58;101015.50;;;5.83;58.68
68822;BME280;55834;50.870;4.606;2022-12-07T12:57:28;101016.44;;;5.65;56.40
68822;BME280;55834;50.870;4.606;2022-12-07T13:02:26;101006.69;;;5.94;56.62
68822;BME280;55834;50.870;4.606;2022-12-07T13:15:39;100996.47;;;5.18;56.98
68822;BME280;55834;50.870;4.606;2022-12-07T13:28:37;100984.56;;;6.39;55.07
68822;BME280;55834;50.870;4.606;2022-12-07T13:31:16;100981.38;;;5.97;54.55
68822;BME280;55834;50.870;4.606;2022-12-07T13:33:45;100971.91;;;5.69;55.77
68822;BME280;55834;50.870;4.606;2022-12-07T13:36:19;100982.50;;;5.30;57.33
68822;BME280;55834;50.870;4.606;2022-12-07T13:39:44;100972.56;;;6.07;56.30
68822;BME280;55834;50.870;4.606;2022-12-07T13:41:41;100970.19;;;5.60;58.10
68822;BME280;55834;50.870;4.606;2022-12-07T13:44:17;100970.13;;;5.69;56.90
68822;BME280;55834;50.870;4.606;2022-12-07T13:49:32;100963.16;;;5.66;58.01
68822;BME280;55834;50.870;4.606;2022-12-07T13:52:13;100951.66;;;5.98;56.25
68822;BME280;55834;50.870;4.606;2022-12-07T13:57:32;100944.28;;;6.51;55.83
68822;BME280;55834;50.870;4.606;2022-12-07T14:00:00;100954.31;;;5.92;55.59
68822;BME280;55834;50.870;4.606;2022-12-07T14:02:32;100956.38;;;4.72;59.33
68822;BME280;55834;50.870;4.606;2022-12-07T14:05:25;100941.53;;;4.92;58.92
68822;BME280;55834;50.870;4.606;2022-12-07T14:10:38;100948.28;;;5.75;57.81
68822;BME280;55834;50.870;4.606;2022-12-07T14:13:33;100958.00;;;5.50;57.32
68822;BME280;55834;50.870;4.606;2022-12-07T14:16:04;100955.34;;;5.56;57.25
68822;BME280;55834;50.870;4.606;2022-12-07T14:18:42;100952.69;;;5.59;56.33
68822;BME280;55834;50.870;4.606;2022-12-07T14:23:38;100935.19;;;5.75;55.78
68822;BME280;55834;50.870;4.606;2022-12-07T14:26:14;100948.53;;;5.13;57.76
68822;BME280;55834;50.870;4.606;2022-12-07T14:28:41;100941.47;;;5.34;56.90
68822;BME280;55834;50.870;4.606;2022-12-07T14:33:36;100949.28;;;3.63;62.89
68822;BME280;55834;50.870;4.606;2022-12-07T14:36:02;100950.00;;;3.32;65.91
68822;BME280;55834;50.870;4.606;2022-12-07T14:38:27;100938.09;;;4.21;62.72
68822;BME280;55834;50.870;4.606;2022-12-07T14:40:53;100945.84;;;3.77;62.53
68822;BME280;55834;50.870;4.606;2022-12-07T14:43:20;100942.41;;;3.99;61.77
68822;BME280;55834;50.870;4.606;2022-12-07T14:45:45;100941.53;;;4.02;61.55
68822;BME280;55834;50.870;4.606;2022-12-07T14:48:13;100928.50;;;4.31;61.59
68822;BME280;55834;50.870;4.606;2022-12-07T14:50:42;100933.72;;;4.75;60.80
68822;BME280;55834;50.870;4.606;2022-12-07T14:53:14;100937.19;;;4.99;60.15
68822;BME280;55834;50.870;4.606;2022-12-07T14:55:40;100926.69;;;5.10;59.73
68822;BME280;55834;50.870;4.606;2022-12-07T14:58:06;100928.41;;;5.23;59.03
68822;BME280;55834;50.870;4.606;2022-12-07T15:00:35;100928.38;;;5.32;57.79
68822;BME280;55834;50.870;4.606;2022-12-07T15:03:01;100925.75;;;5.37;59.26
68822;BME280;55834;50.870;4.606;2022-12-07T15:05:26;100935.22;;;5.65;58.26
68822;BME280;55834;50.870;4.606;2022-12-07T15:07:51;100928.47;;;5.08;57.76
68822;BME280;55834;50.870;4.606;2022-12-07T15:12:44;100922.34;;;5.12;59.17
68822;BME280;55834;50.870;4.606;2022-12-07T15:15:10;100921.34;;;5.51;58.64
68822;BME280;55834;50.870;4.606;2022-12-07T15:17:36;100917.88;;;5.48;56.39
68822;BME280;55834;50.870;4.606;2022-12-07T15:20:02;100912.72;;;5.25;58.51
68822;BME280;55834;50.870;4.606;2022-12-07T15:22:28;100907.38;;;5.48;58.38
68822;BME280;55834;50.870;4.606;2022-12-07T15:24:56;100913.53;;;5.34;56.85
68822;BME280;55834;50.870;4.606;2022-12-07T15:27:21;100910.03;;;5.38;57.94